Time;durP1;ratioP1;P1;durP2;ratioP2;P2;SDS_P1;SDS_P2;PMS_P1;PMS_P2;Temp;Humidity;BMP_temperature;BMP_pressure;BME280_temperature;BME280_humidity;BME280_pressure;Samples;Min_cycle;Max_cycle;Signal;HPM_P1;HPM_P2
2022/07/21 00:00:21;;;;;;;;;;;21.00;63.50;;;20.43;58.86;96411.34;4292881;33;20018;-83
2022/07/21 00:02:49;;;;;;;;;;;21.00;63.40;;;20.43;58.89;96405.78;4292158;33;20049;-83
2022/07/21 00:05:18;;;;;;;;;;;21.00;63.60;;;20.43;58.89;96403.00;4315905;32;19902;-83
2022/07/21 00:07:48;;;;;;;;;;;21.00;63.60;;;20.42;58.82;96401.38;4292863;33;20043;-82
2022/07/21 00:10:17;;;;;;;;;;;21.00;63.60;;;20.41;59.10;96399.72;4291627;33;19908;-83
2022/07/21 00:12:46;;;;;;;;;;;21.00;63.50;;;20.42;58.86;96400.53;4267172;33;19901;-82
2022/07/21 00:15:16;;;;;;;;;;;21.00;63.50;;;20.41;59.12;96405.28;4291593;33;20150;-82
2022/07/21 00:17:44;;;;;;;;;;;21.00;63.50;;;20.40;58.86;96392.53;4292674;33;20243;-83
2022/07/21 00:20:14;;;;;;;;;;;21.00;63.50;;;20.40;58.76;96400.88;4267577;33;20147;-83
2022/07/21 00:22:43;;;;;;;;;;;21.00;63.50;;;20.40;59.00;96400.88;4267095;33;19901;-83
2022/07/21 00:25:14;;;;;;;;;;;21.00;63.40;;;20.38;58.93;96390.09;4291664;33;19902;-84
2022/07/21 00:27:42;;;;;;;;;;;21.00;63.40;;;20.39;58.87;96396.47;4267394;33;19909;-83
2022/07/21 00:30:12;;;;;;;;;;;21.00;63.40;;;20.40;59.09;96398.09;4292549;33;20021;-84
2022/07/21 00:32:41;;;;;;;;;;;21.00;63.50;;;20.39;59.01;96397.28;4266802;33;20251;-84
2022/07/21 00:35:10;;;;;;;;;;;21.00;63.50;;;20.38;58.92;96397.59;4292242;33;19901;-83
2022/07/21 00:37:38;;;;;;;;;;;21.00;63.50;;;20.37;59.14;96394.03;4291443;33;19908;-82
2022/07/21 00:40:08;;;;;;;;;;;21.00;63.50;;;20.38;58.94;96394.81;4267323;33;19901;-83
2022/07/21 00:42:38;;;;;;;;;;;21.00;63.50;;;20.37;58.65;96393.19;4290371;33;20305;-83
2022/07/21 00:45:08;;;;;;;;;;;21.00;63.50;;;20.37;59.03;96382.06;4267266;33;19934;-83
2022/07/21 00:47:37;;;;;;;;;;;21.00;63.50;;;20.36;58.81;96391.56;4315856;32;19901;-83
2022/07/21 00:50:08;;;;;;;;;;;21.00;63.50;;;20.36;58.77;96386.00;4291253;33;19976;-84
2022/07/21 00:52:36;;;;;;;;;;;21.00;63.50;;;20.36;58.94;96388.78;4291957;33;19980;-84
2022/07/21 00:55:06;;;;;;;;;;;21.00;63.50;;;20.36;58.83;96392.38;4267228;33;20076;-83
2022/07/21 00:57:35;;;;;;;;;;;20.90;63.40;;;20.36;59.08;96391.56;4291317;33;19965;-82
2022/07/21 01:00:05;;;;;;;;;;;21.00;63.40;;;20.36;58.84;96386.00;4291344;33;20236;-82
2022/07/21 01:02:36;;;;;;;;;;;21.00;63.40;;;20.35;58.90;96379.63;4291741;33;20101;-83
2022/07/21 01:05:05;;;;;;;;;;;21.00;63.50;;;20.34;59.06;96380.78;4292017;33;19960;-83
2022/07/21 01:07:34;;;;;;;;;;;21.00;63.50;;;20.35;58.92;96385.19;4292176;33;19909;-83
2022/07/21 01:10:02;;;;;;;;;;;21.00;63.50;;;20.35;58.82;96378.78;4292105;33;19909;-83
2022/07/21 01:12:31;;;;;;;;;;;21.00;63.50;;;20.35;59.01;96378.78;4292090;33;20011;-83
2022/07/21 01:15:00;;;;;;;;;;;20.90;63.60;;;20.36;58.51;96386.00;4290977;33;19901;-84
2022/07/21 01:17:30;;;;;;;;;;;20.90;63.60;;;20.35;59.24;96376.84;4291938;33;19901;-83
2022/07/21 01:19:58;;;;;;;;;;;20.90;63.60;;;20.34;58.82;96374.38;4291792;33;19983;-83
2022/07/21 01:22:28;;;;;;;;;;;21.00;63.70;;;20.34;58.91;96378.00;4290545;33;19902;-83
2022/07/21 01:24:57;;;;;;;;;;;20.90;63.70;;;20.34;59.00;96371.59;4291965;33;20114;-84
2022/07/21 01:27:26;;;;;;;;;;;21.00;63.70;;;20.34;59.25;96374.38;4292029;33;19995;-84
2022/07/21 01:29:55;;;;;;;;;;;20.90;63.70;;;20.33;59.07;96370.78;4291972;33;20217;-84
2022/07/21 01:32:23;;;;;;;;;;;20.90;63.60;;;20.34;59.27;96371.59;4290416;33;19938;-84
2022/07/21 01:34:52;;;;;;;;;;;20.90;63.70;;;20.33;59.09;96370.00;4266672;33;19901;-84
2022/07/21 01:37:24;;;;;;;;;;;21.00;63.70;;;20.33;59.12;96368.00;4291734;33;19909;-83
2022/07/21 01:42:40;;;;;;;;;;;20.90;63.70;;;20.32;58.77;96371.13;4291358;33;19901;-83
2022/07/21 01:45:10;;;;;;;;;;;20.90;63.70;;;20.32;59.21;96365.56;4291638;33;19908;-83
2022/07/21 01:47:40;;;;;;;;;;;20.90;63.60;;;20.32;58.68;96365.56;4291746;33;20310;-84
2022/07/21 01:50:09;;;;;;;;;;;20.90;63.70;;;20.31;59.22;96363.94;4290609;33;20445;-85
2022/07/21 01:52:37;;;;;;;;;;;20.90;63.80;;;20.32;59.04;96360.00;4290191;33;20134;-84
2022/07/21 01:55:08;;;;;;;;;;;20.90;63.80;;;20.31;59.19;96370.31;4291609;33;19901;-84
2022/07/21 01:57:37;;;;;;;;;;;20.90;63.90;;;20.31;59.36;96375.06;4290557;33;19901;-84
2022/07/21 02:00:08;;;;;;;;;;;20.90;63.80;;;20.31;59.00;96372.28;4291584;33;19908;-83
2022/07/21 02:02:37;;;;;;;;;;;20.90;63.60;;;20.30;59.25;96370.63;4291070;33;19901;-83
2022/07/21 02:05:06;;;;;;;;;;;20.90;63.80;;;20.29;59.06;96369.81;4290470;33;19902;-84
2022/07/21 02:07:34;;;;;;;;;;;20.90;63.80;;;20.30;59.07;96378.97;4290587;33;19901;-84
2022/07/21 02:10:03;;;;;;;;;;;20.90;63.80;;;20.29;59.01;96374.56;4290462;33;20146;-84
2022/07/21 02:12:33;;;;;;;;;;;20.90;63.70;;;20.28;59.20;96378.50;4289809;33;20258;-84
2022/07/21 02:15:02;;;;;;;;;;;20.90;63.60;;;20.29;59.23;96380.13;4291291;33;19908;-84
2022/07/21 02:17:30;;;;;;;;;;;20.90;63.70;;;20.28;59.14;96378.50;4266144;33;20111;-84
2022/07/21 02:19:59;;;;;;;;;;;20.90;63.70;;;20.28;59.24;96375.72;4290219;33;20046;-84
2022/07/21 02:22:27;;;;;;;;;;;20.90;63.80;;;20.29;59.12;96377.34;4290688;33;20164;-84
2022/07/21 02:24:56;;;;;;;;;;;20.80;64.60;;;20.27;59.23;96372.09;4291227;33;20015;-84
2022/07/21 02:27:24;;;;;;;;;;;20.90;63.80;;;20.27;59.39;96376.84;4290150;33;20168;-84
2022/07/21 02:29:54;;;;;;;;;;;20.90;63.80;;;20.27;59.23;96371.28;4289496;33;19973;-84
2022/07/21 02:32:23;;;;;;;;;;;20.80;63.80;;;20.27;59.35;96376.84;4289694;33;20131;-83
2022/07/21 02:34:51;;;;;;;;;;;20.80;63.80;;;20.27;59.24;96374.06;4291051;33;19902;-84
2022/07/21 02:37:20;;;;;;;;;;;20.80;63.80;;;20.26;59.18;96375.22;4290102;33;19988;-85
2022/07/21 02:39:48;;;;;;;;;;;20.80;63.80;;;20.26;59.26;96375.22;4290999;33;20413;-84
2022/07/21 02:42:17;;;;;;;;;;;20.90;63.80;;;20.25;59.11;96374.41;4290617;33;20057;-83
2022/07/21 02:44:45;;;;;;;;;;;20.90;63.90;;;20.24;59.15;96373.59;4291061;33;20469;-83
2022/07/21 02:47:16;;;;;;;;;;;20.80;63.70;;;20.25;59.20;96374.41;4289853;33;20075;-84
2022/07/21 02:49:46;;;;;;;;;;;20.80;63.60;;;20.25;59.20;96368.84;4290944;33;20332;-83
2022/07/21 02:52:14;;;;;;;;;;;20.90;63.80;;;20.23;59.03;96371.94;4290470;33;20162;-84
2022/07/21 02:54:43;;;;;;;;;;;20.80;63.70;;;20.24;59.44;96365.25;4290941;33;19902;-84
2022/07/21 02:57:11;;;;;;;;;;;20.90;64.00;;;20.24;59.27;96365.25;4290761;33;20098;-84
2022/07/21 02:59:40;;;;;;;;;;;20.80;63.80;;;20.23;59.13;96363.59;4290842;33;19987;-84
2022/07/21 03:02:08;;;;;;;;;;;20.90;64.00;;;20.24;59.21;96373.59;4289349;33;19905;-83
2022/07/21 03:04:38;;;;;;;;;;;20.80;63.80;;;20.24;59.32;96372.78;4290851;33;19901;-83
2022/07/21 03:07:07;;;;;;;;;;;20.80;63.80;;;20.23;59.30;96377.50;4293564;33;19901;-83
2022/07/21 03:09:35;;;;;;;;;;;20.80;63.80;;;20.23;59.38;96377.50;4293696;33;19901;-82
2022/07/21 03:12:05;;;;;;;;;;;20.80;63.80;;;20.23;59.17;96373.94;4286985;33;19913;-83
2022/07/21 03:14:33;;;;;;;;;;;20.90;63.80;;;20.23;59.06;96382.25;4264442;33;20097;-83
2022/07/21 03:17:02;;;;;;;;;;;20.90;63.90;;;20.23;59.05;96380.28;4264247;33;20157;-83
2022/07/21 03:19:30;;;;;;;;;;;20.90;63.80;;;20.23;59.09;96376.69;4264255;33;20380;-84
2022/07/21 03:22:00;;;;;;;;;;;20.80;63.70;;;20.23;59.16;96380.28;4286982;33;19902;-84
2022/07/21 03:24:29;;;;;;;;;;;20.80;63.60;;;20.23;58.95;96371.94;4263232;33;19932;-82
2022/07/21 03:26:58;;;;;;;;;;;20.90;63.60;;;20.23;59.07;96380.28;4284081;33;20102;-82
2022/07/21 03:29:27;;;;;;;;;;;20.80;63.50;;;20.23;59.03;96374.72;4293267;33;20137;-84
2022/07/21 03:31:55;;;;;;;;;;;20.80;63.60;;;20.24;58.84;96379.13;4292618;33;20124;-83
2022/07/21 03:34:24;;;;;;;;;;;20.80;63.50;;;20.25;59.01;96379.97;4293126;33;19986;-83
2022/07/21 03:36:52;;;;;;;;;;;20.80;63.50;;;20.26;58.94;96378.00;4293073;33;20146;-83
2022/07/21 03:39:22;;;;;;;;;;;20.80;63.40;;;20.26;58.94;96381.63;4291922;33;20149;-83
2022/07/21 03:41:51;;;;;;;;;;;20.90;63.50;;;20.28;58.60;96384.06;4292485;33;20154;-82
2022/07/21 03:44:19;;;;;;;;;;;20.90;63.30;;;20.28;58.55;96378.50;4293073;33;20121;-83
2022/07/21 03:46:48;;;;;;;;;;;20.90;63.20;;;20.30;58.75;96381.75;4291942;33;19926;-83
2022/07/21 03:49:17;;;;;;;;;;;20.90;63.40;;;20.31;58.67;96388.97;4292994;33;20391;-82
2022/07/21 03:51:47;;;;;;;;;;;20.90;63.30;;;20.32;59.16;96385.03;4291576;33;19901;-83
2022/07/21 03:54:15;;;;;;;;;;;20.90;63.30;;;20.32;58.48;96391.41;4291965;33;19909;-82
2022/07/21 03:56:45;;;;;;;;;;;20.90;63.30;;;20.34;58.75;96391.06;4291826;33;20266;-83
2022/07/21 03:59:14;;;;;;;;;;;21.00;63.20;;;20.35;58.69;96396.31;4291860;33;20102;-84
2022/07/21 04:01:42;;;;;;;;;;;20.90;63.10;;;20.37;58.61;96393.19;4292164;33;19901;-83
2022/07/21 04:04:11;;;;;;;;;;;21.00;63.20;;;20.39;58.69;96388.13;4291819;33;19909;-83
2022/07/21 04:06:39;;;;;;;;;;;21.00;63.20;;;20.40;59.09;96392.53;4291873;33;20133;-84
2022/07/21 04:09:08;;;;;;;;;;;21.00;63.50;;;20.42;59.70;96387.47;4292609;33;19901;-84
2022/07/21 04:11:37;;;;;;;;;;;21.00;63.80;;;20.43;58.98;96383.53;4292082;33;20118;-84
2022/07/21 04:14:07;;;;;;;;;;;21.00;64.10;;;20.45;59.83;96384.03;4292699;33;20133;-84
2022/07/21 04:16:35;;;;;;;;;;;21.10;64.30;;;20.47;59.93;96386.47;4290800;33;20148;-84
2022/07/21 04:19:04;;;;;;;;;;;21.10;64.60;;;20.49;59.67;96378.63;4292523;33;19908;-83
2022/07/21 04:21:33;;;;;;;;;;;21.10;64.60;;;20.50;59.86;96381.06;4291002;33;19916;-84
2022/07/21 04:24:01;;;;;;;;;;;21.10;64.60;;;20.52;59.80;96383.53;4291623;33;19962;-84
2022/07/21 04:26:30;;;;;;;;;;;21.10;64.60;;;20.53;60.04;96379.56;4292614;33;20316;-84
2022/07/21 04:28:58;;;;;;;;;;;21.10;64.60;;;20.54;59.98;96375.63;4291456;33;19990;-84
2022/07/21 04:31:31;;;;;;;;;;;21.20;64.60;;;20.56;59.78;96378.09;4290980;33;19901;-84
2022/07/21 04:34:00;;;;;;;;;;;21.10;64.50;;;20.58;59.91;96375.81;4292460;33;19909;-84
2022/07/21 04:36:28;;;;;;;;;;;21.20;65.40;;;20.58;60.02;96371.06;4292326;33;20095;-83
2022/07/21 04:38:57;;;;;;;;;;;21.20;64.50;;;20.61;59.92;96372.34;4291405;33;20066;-83
2022/07/21 04:41:26;;;;;;;;;;;21.20;64.50;;;20.62;59.97;96376.75;4292030;33;20169;-84
2022/07/21 04:43:54;;;;;;;;;;;21.20;64.40;;;20.64;60.01;96377.25;4292236;33;19905;-83
2022/07/21 04:46:23;;;;;;;;;;;21.20;64.40;;;20.66;59.69;96377.75;4292247;33;20228;-84
2022/07/21 04:48:53;;;;;;;;;;;21.30;64.50;;;20.68;59.82;96386.56;4291172;33;20161;-83
2022/07/21 04:51:21;;;;;;;;;;;21.30;64.50;;;20.70;59.84;96384.28;4291729;33;19902;-83
2022/07/21 04:53:50;;;;;;;;;;;21.30;64.40;;;20.73;59.61;96386.38;4292062;33;19909;-84
2022/07/21 04:56:18;;;;;;;;;;;21.30;64.40;;;20.75;59.76;96391.66;4291298;33;20108;-84
2022/07/21 04:58:47;;;;;;;;;;;21.40;64.20;;;20.78;59.31;96385.44;4291141;33;19902;-84
2022/07/21 05:01:17;;;;;;;;;;;21.40;64.20;;;20.79;59.63;96399.00;4290719;33;20029;-84
2022/07/21 05:03:46;;;;;;;;;;;21.50;64.20;;;20.82;59.60;96390.00;4290917;33;19901;-82
2022/07/21 05:06:16;;;;;;;;;;;21.40;64.00;;;20.84;59.88;96387.72;4292032;33;20097;-84
2022/07/21 05:08:44;;;;;;;;;;;21.50;64.00;;;20.85;59.48;96386.53;4292016;33;19902;-83
2022/07/21 05:11:13;;;;;;;;;;;21.50;63.90;;;20.89;59.31;96391.44;4291741;33;20106;-83
2022/07/21 05:13:41;;;;;;;;;;;21.50;63.80;;;20.89;59.15;96397.84;4290846;33;20331;-84
2022/07/21 05:16:10;;;;;;;;;;;21.60;63.60;;;20.91;59.04;96389.16;4291852;33;20125;-83
2022/07/21 05:18:38;;;;;;;;;;;21.50;63.60;;;20.92;59.06;96385.22;4291728;33;20188;-84
2022/07/21 05:21:08;;;;;;;;;;;21.50;63.60;;;20.92;58.99;96391.59;4290902;33;19901;-83
2022/07/21 05:23:38;;;;;;;;;;;21.50;63.50;;;20.92;59.14;96386.00;4290562;33;20217;-84
2022/07/21 05:26:07;;;;;;;;;;;21.50;63.60;;;20.93;59.28;96403.53;4291996;33;20085;-83
2022/07/21 05:28:35;;;;;;;;;;;21.50;63.60;;;20.93;59.05;96397.97;4290480;33;20075;-84
2022/07/21 05:31:04;;;;;;;;;;;21.50;63.40;;;20.92;59.11;96399.13;4266590;33;20096;-84
2022/07/21 05:33:32;;;;;;;;;;;21.60;63.50;;;20.93;58.96;96406.31;4266078;33;19909;-84
2022/07/21 05:36:01;;;;;;;;;;;21.50;63.40;;;20.93;59.12;96390.44;4290779;33;19901;-84
2022/07/21 05:38:29;;;;;;;;;;;21.60;63.40;;;20.94;59.09;96394.06;4290758;33;19928;-84
2022/07/21 05:41:02;;;;;;;;;;;21.60;63.40;;;20.96;58.82;96388.97;4291615;33;19910;-84
2022/07/21 05:43:31;;;;;;;;;;;21.60;63.40;;;20.97;58.96;96385.03;4290021;33;19901;-84
2022/07/21 05:45:59;;;;;;;;;;;21.60;63.30;;;20.98;58.87;96381.06;4291591;33;20123;-83
2022/07/21 05:48:28;;;;;;;;;;;21.60;63.20;;;21.00;58.69;96382.41;4291424;33;19901;-83
2022/07/21 05:50:56;;;;;;;;;;;21.60;63.10;;;21.02;58.69;96373.69;4290681;33;20121;-84
2022/07/21 05:53:25;;;;;;;;;;;21.70;63.30;;;21.04;58.84;96374.19;4290049;33;20131;-82
2022/07/21 05:55:53;;;;;;;;;;;21.70;63.00;;;21.05;58.73;96373.03;4290371;33;20224;-83
2022/07/21 05:58:24;;;;;;;;;;;21.70;63.20;;;21.09;58.71;96375.97;4291371;33;20057;-83
2022/07/21 06:03:36;;;;;;;;;;;21.70;63.10;;;21.16;58.59;96373.50;4289779;33;19972;-83
2022/07/21 06:06:05;;;;;;;;;;;21.80;63.90;;;21.18;58.38;96373.94;4291511;33;19908;-83
2022/07/21 06:08:34;;;;;;;;;;;21.80;62.90;;;21.22;58.48;96376.91;4290422;33;19901;-83
2022/07/21 06:11:02;;;;;;;;;;;21.80;62.90;;;21.24;58.48;96380.97;4290248;33;19901;-82
2022/07/21 06:13:32;;;;;;;;;;;21.90;62.90;;;21.27;58.59;96379.47;4290779;33;19966;-84
2022/07/21 06:16:01;;;;;;;;;;;21.90;62.90;;;21.28;58.48;96381.09;4291212;33;19953;-85
2022/07/21 06:18:31;;;;;;;;;;;21.90;62.80;;;21.28;58.30;96375.53;4290647;33;23658;-84
2022/07/21 06:21:00;;;;;;;;;;;21.90;62.70;;;21.30;58.21;96387.16;4290163;33;19901;-84
2022/07/21 06:23:29;;;;;;;;;;;21.90;62.60;;;21.30;58.07;96374.03;4289664;33;19902;-83
2022/07/21 06:25:57;;;;;;;;;;;22.00;62.50;;;21.33;58.14;96375.34;4290230;33;20020;-84
2022/07/21 06:28:26;;;;;;;;;;;22.00;62.60;;;21.33;58.19;96375.34;4290351;33;19901;-83
2022/07/21 06:30:56;;;;;;;;;;;22.00;62.50;;;21.36;58.13;96377.47;4291159;33;19901;-84
2022/07/21 06:33:24;;;;;;;;;;;22.00;62.40;;;21.36;58.03;96366.34;4290646;33;19901;-84
2022/07/21 06:35:53;;;;;;;;;;;22.00;62.30;;;21.38;57.88;96371.56;4291160;33;19901;-84
2022/07/21 06:38:21;;;;;;;;;;;22.00;62.40;;;21.39;57.71;96370.41;4265810;33;20335;-84
2022/07/21 06:40:50;;;;;;;;;;;22.00;62.30;;;21.41;58.02;96362.53;4289867;33;19908;-84
2022/07/21 06:43:18;;;;;;;;;;;22.00;62.30;;;21.41;57.83;96368.91;4289413;33;20217;-83
2022/07/21 06:45:47;;;;;;;;;;;22.10;62.40;;;21.42;58.01;96364.97;4265809;33;20131;-84
2022/07/21 06:48:17;;;;;;;;;;;22.10;62.40;;;21.43;58.06;96366.59;4265733;33;20153;-85
2022/07/21 06:50:45;;;;;;;;;;;22.10;62.30;;;21.46;57.97;96365.09;4289962;33;20133;-85
2022/07/21 06:53:14;;;;;;;;;;;22.10;62.30;;;21.47;57.92;96361.16;4289315;33;20041;-84
2022/07/21 06:55:42;;;;;;;;;;;22.10;62.20;;;21.50;57.82;96360.50;4290807;33;19909;-84
2022/07/21 06:58:12;;;;;;;;;;;22.10;62.30;;;21.52;57.74;96363.78;4290964;33;19957;-84
2022/07/21 07:00:41;;;;;;;;;;;22.10;62.10;;;21.55;57.75;96356.69;4290911;33;20135;-83
2022/07/21 07:03:09;;;;;;;;;;;22.10;62.10;;;21.58;57.32;96356.03;4290209;33;20136;-83
2022/07/21 07:05:39;;;;;;;;;;;22.10;62.00;;;21.61;57.65;96352.59;4290022;33;19901;-83
2022/07/21 07:08:08;;;;;;;;;;;22.20;61.80;;;21.63;57.29;96355.84;4290003;33;20212;-84
2022/07/21 07:10:36;;;;;;;;;;;22.20;61.70;;;21.66;57.23;96357.16;4290860;33;20369;-83
2022/07/21 07:13:05;;;;;;;;;;;22.20;61.60;;;21.68;57.17;96357.63;4290277;33;19943;-84
2022/07/21 07:15:33;;;;;;;;;;;22.20;61.50;;;21.70;57.16;96346.94;4289998;33;20062;-84
2022/07/21 07:18:02;;;;;;;;;;;22.30;61.60;;;21.72;57.08;96353.81;4289840;33;19901;-84
2022/07/21 07:20:30;;;;;;;;;;;22.30;61.50;;;21.74;56.88;96350.69;4290754;33;19908;-83
2022/07/21 07:23:00;;;;;;;;;;;22.30;61.50;;;21.74;57.48;96353.47;4289142;33;20046;-83
2022/07/21 07:25:29;;;;;;;;;;;22.30;61.40;;;21.73;56.82;96347.09;4290811;33;20094;-84
2022/07/21 07:27:58;;;;;;;;;;;22.30;61.40;;;21.74;56.81;96348.72;4289889;33;20463;-84
2022/07/21 07:30:27;;;;;;;;;;;22.30;61.30;;;21.75;57.10;96355.91;4289605;33;19909;-83
2022/07/21 07:32:55;;;;;;;;;;;22.30;61.30;;;21.75;56.98;96344.75;4289149;33;19901;-83
2022/07/21 07:35:24;;;;;;;;;;;22.30;61.30;;;21.74;57.18;96347.91;4289474;33;20133;-85
2022/07/21 07:37:55;;;;;;;;;;;22.30;61.30;;;21.74;57.00;96343.16;4265638;33;19902;-84
2022/07/21 07:40:27;;;;;;;;;;;22.30;61.30;;;21.76;57.15;96346.38;4266087;33;20000;-84
2022/07/21 07:42:56;;;;;;;;;;;22.40;61.30;;;21.77;57.25;96342.44;4289005;33;19969;-84
2022/07/21 07:45:24;;;;;;;;;;;22.40;61.30;;;21.76;57.01;96338.03;4290570;33;19941;-84
2022/07/21 07:47:53;;;;;;;;;;;22.40;61.40;;;21.76;57.17;96343.59;4290508;33;20161;-84
2022/07/21 07:50:21;;;;;;;;;;;22.40;61.40;;;21.78;57.21;96348.84;4289944;33;19902;-84
2022/07/21 07:52:50;;;;;;;;;;;22.30;61.30;;;21.78;57.26;96343.28;4292542;33;20339;-84
2022/07/21 07:55:18;;;;;;;;;;;22.30;61.40;;;21.77;57.03;96342.44;4291851;33;19909;-84
2022/07/21 07:57:48;;;;;;;;;;;22.30;61.50;;;21.77;57.20;96347.22;4292017;33;19902;-84
2022/07/21 08:00:19;;;;;;;;;;;22.40;61.40;;;21.79;57.09;96346.88;4292772;33;20145;-86
2022/07/21 08:02:47;;;;;;;;;;;22.40;61.50;;;21.79;57.23;96349.66;4291443;33;20129;-83
2022/07/21 08:05:16;;;;;;;;;;;22.40;61.40;;;21.79;57.25;96339.34;4291831;33;19901;-82
2022/07/21 08:07:44;;;;;;;;;;;22.30;61.50;;;21.78;57.07;96348.84;4292961;33;19908;-85
2022/07/21 08:10:13;;;;;;;;;;;22.40;61.50;;;21.80;57.01;96351.28;4291773;33;19925;-85
2022/07/21 08:12:42;;;;;;;;;;;22.40;61.50;;;21.77;57.33;96345.25;4267033;33;19912;-84
2022/07/21 08:15:12;;;;;;;;;;;22.40;61.50;;;21.80;57.09;96340.97;4291709;33;19902;-84
2022/07/21 08:17:40;;;;;;;;;;;22.40;61.60;;;21.77;57.49;96345.25;4291644;33;19908;-84
2022/07/21 08:20:10;;;;;;;;;;;22.40;61.50;;;21.79;57.43;96346.88;4291667;33;19902;-84
2022/07/21 08:22:38;;;;;;;;;;;22.40;61.60;;;21.77;57.15;96341.66;4292112;33;19909;-82
2022/07/21 08:25:07;;;;;;;;;;;22.40;61.50;;;21.76;57.36;96340.81;4267141;33;19901;-85
2022/07/21 08:27:38;;;;;;;;;;;22.30;61.60;;;21.76;57.50;96343.59;4292518;33;20117;-85
2022/07/21 08:30:08;;;;;;;;;;;22.40;61.70;;;21.76;57.37;96340.81;4267434;33;19902;-84
2022/07/21 08:32:38;;;;;;;;;;;22.40;61.70;;;21.75;57.37;96343.97;4291038;33;20379;-84
2022/07/21 08:35:08;;;;;;;;;;;22.30;61.60;;;21.75;57.43;96339.19;4291354;33;20054;-85
2022/07/21 08:37:36;;;;;;;;;;;22.30;61.60;;;21.74;57.45;96337.59;4291510;33;19901;-85
2022/07/21 08:40:06;;;;;;;;;;;22.30;61.70;;;21.72;57.58;96337.09;4291416;33;19910;-84
2022/07/21 08:42:34;;;;;;;;;;;22.30;61.70;;;21.72;58.11;96339.88;4266468;33;19901;-84
2022/07/21 08:45:03;;;;;;;;;;;22.30;61.80;;;21.70;57.49;96333.84;4292343;33;20090;-83
2022/07/21 08:47:31;;;;;;;;;;;22.30;61.80;;;21.70;57.58;96336.63;4291401;33;20093;-84
2022/07/21 08:50:01;;;;;;;;;;;22.30;61.80;;;21.70;57.68;96338.56;4292266;33;20046;-83
2022/07/21 08:52:30;;;;;;;;;;;22.30;61.90;;;21.68;57.54;96338.94;4291903;33;20140;-83
2022/07/21 08:54:58;;;;;;;;;;;22.30;62.00;;;21.67;57.52;96340.09;4291463;33;19932;-84
2022/07/21 08:57:27;;;;;;;;;;;22.30;62.00;;;21.65;57.63;96325.66;4292153;33;20096;-83
2022/07/21 08:59:55;;;;;;;;;;;22.30;61.90;;;21.66;57.79;96330.09;4292203;33;20033;-84
2022/07/21 09:02:28;;;;;;;;;;;22.30;62.10;;;21.67;57.83;96337.28;4290959;33;20157;-84
2022/07/21 09:04:56;;;;;;;;;;;22.30;62.10;;;21.66;57.77;96334.88;4292079;33;19908;-84
2022/07/21 09:07:26;;;;;;;;;;;22.30;62.10;;;21.65;57.73;96328.47;4291118;33;19908;-85
2022/07/21 09:09:56;;;;;;;;;;;22.30;62.10;;;21.65;57.88;96322.88;4292097;33;20208;-84
2022/07/21 09:12:24;;;;;;;;;;;22.30;62.10;;;21.65;57.80;96327.66;4291616;33;20101;-85
2022/07/21 09:14:53;;;;;;;;;;;22.30;62.10;;;21.65;57.83;96327.66;4292079;33;20152;-85
2022/07/21 09:17:22;;;;;;;;;;;22.20;62.10;;;21.65;57.70;96330.44;4291960;33;19901;-84
2022/07/21 09:19:51;;;;;;;;;;;22.30;62.10;;;21.65;57.90;96314.53;4291991;33;19901;-84
2022/07/21 09:22:20;;;;;;;;;;;22.30;62.20;;;21.65;57.90;96322.09;4290638;33;20467;-86
2022/07/21 09:24:52;;;;;;;;;;;22.20;62.10;;;21.65;57.95;96325.66;4290957;33;19902;-84
2022/07/21 09:27:24;;;;;;;;;;;22.30;62.30;;;21.64;57.90;96320.44;4266979;33;19902;-85
2022/07/21 09:29:54;;;;;;;;;;;22.30;62.20;;;21.63;57.95;96319.63;4291085;33;20128;-85
2022/07/21 09:32:25;;;;;;;;;;;22.20;62.20;;;21.65;57.82;96316.50;4290490;33;20010;-84
2022/07/21 09:34:54;;;;;;;;;;;22.30;62.30;;;21.64;57.93;96315.69;4266939;33;19999;-83
2022/07/21 09:37:23;;;;;;;;;;;22.30;62.30;;;21.62;57.66;96301.31;4291834;33;19909;-84
2022/07/21 09:39:54;;;;;;;;;;;22.30;62.40;;;21.63;57.88;96322.41;4291804;33;20133;-83
2022/07/21 09:42:25;;;;;;;;;;;22.20;62.30;;;21.63;58.11;96322.41;4291269;33;19901;-84
2022/07/21 09:44:56;;;;;;;;;;;22.20;62.30;;;21.63;58.17;96319.63;4291740;33;20356;-85
2022/07/21 09:47:26;;;;;;;;;;;22.20;62.30;;;21.62;57.90;96318.00;4291564;33;19913;-85
2022/07/21 09:49:54;;;;;;;;;;;22.20;62.30;;;21.63;58.06;96318.81;4291637;33;19909;-85
2022/07/21 09:52:27;;;;;;;;;;;22.20;62.30;;;21.64;58.10;96309.31;4291307;33;19901;-84
2022/07/21 09:55:00;;;;;;;;;;;22.20;62.30;;;21.62;58.17;96315.22;4290728;33;20243;-84
2022/07/21 09:57:28;;;;;;;;;;;22.20;62.30;;;21.62;58.17;96298.50;4290758;33;20174;-85
2022/07/21 09:59:57;;;;;;;;;;;22.20;62.30;;;21.63;58.32;96302.09;4266618;33;20401;-85
2022/07/21 10:02:28;;;;;;;;;;;22.20;62.30;;;21.63;58.07;96310.47;4290740;33;19908;-84
2022/07/21 10:04:59;;;;;;;;;;;22.20;62.30;;;21.63;58.06;96314.03;4266083;33;19933;-84
2022/07/21 10:07:28;;;;;;;;;;;22.20;62.30;;;21.63;57.96;96314.03;4291484;33;20242;-84
2022/07/21 10:09:57;;;;;;;;;;;22.20;62.30;;;21.62;58.14;96306.88;4266459;33;19901;-85
2022/07/21 10:12:27;;;;;;;;;;;22.20;62.30;;;21.62;58.16;96298.50;4290719;33;20158;-85
2022/07/21 10:14:56;;;;;;;;;;;22.20;62.40;;;21.62;58.20;96301.31;4290341;33;20272;-85
2022/07/21 10:17:25;;;;;;;;;;;22.20;62.40;;;21.61;57.97;96299.66;4290538;33;20097;-84
2022/07/21 10:20:05;;;;;;;;;;;22.20;62.40;;;21.62;57.95;96301.31;4290394;33;19902;-83
2022/07/21 10:22:50;;;;;;;;;;;22.20;62.40;;;21.61;58.19;96296.88;4265659;33;20143;-84
2022/07/21 10:25:20;;;;;;;;;;;22.20;62.40;;;21.61;58.06;96292.13;4290491;33;19902;-84
2022/07/21 10:28:20;;;;;;;;;;;22.20;62.40;;;21.61;58.30;96288.53;4291207;33;19902;-84
2022/07/21 10:30:50;;;;;;;;;;;22.20;62.50;;;21.60;58.31;96298.03;4291339;33;20016;-85
2022/07/21 10:33:20;;;;;;;;;;;22.20;62.40;;;21.60;58.14;96292.47;4289923;33;20484;-84
2022/07/21 10:35:50;;;;;;;;;;;22.20;62.40;;;21.59;58.17;96302.78;4291142;33;19901;-84
2022/07/21 10:38:29;;;;;;;;;;;22.20;62.40;;;21.59;58.05;96297.22;4291173;33;19901;-84
2022/07/21 10:40:59;;;;;;;;;;;22.20;62.60;;;21.60;58.15;96298.03;4291288;33;19901;-85
2022/07/21 10:43:43;;;;;;;;;;;22.20;62.60;;;21.59;58.29;96294.41;4289459;33;19902;-85
2022/07/21 10:46:37;;;;;;;;;;;22.20;62.50;;;21.59;58.37;96290.81;4291285;33;19950;-85
2022/07/21 10:49:10;;;;;;;;;;;22.20;62.50;;;21.58;58.27;96295.53;4285808;32;20116;-84
2022/07/21 10:51:39;;;;;;;;;;;22.20;62.60;;;21.59;58.23;96290.81;4290593;33;20236;-84
2022/07/21 10:54:25;;;;;;;;;;;22.20;62.60;;;21.57;58.30;96298.69;4290317;33;19902;-84
2022/07/21 10:57:37;;;;;;;;;;;22.20;62.60;;;21.56;58.20;96291.47;4291237;33;19901;-84
2022/07/21 11:00:27;;;;;;;;;;;22.20;62.60;;;21.57;58.29;96287.53;4256813;33;19909;-84
2022/07/21 11:02:57;;;;;;;;;;;22.20;62.70;;;21.55;58.37;96289.84;4289653;33;19902;-84
2022/07/21 11:05:27;;;;;;;;;;;22.20;62.70;;;21.55;58.42;96273.97;4291104;33;20083;-84
2022/07/21 11:08:16;;;;;;;;;;;22.20;62.80;;;21.55;58.36;96281.47;4290880;33;19908;-84
2022/07/21 11:10:46;;;;;;;;;;;22.20;62.80;;;21.55;58.49;96281.47;4262084;33;19932;-84
2022/07/21 11:13:16;;;;;;;;;;;22.20;62.80;;;21.55;58.47;96281.47;4260477;33;19956;-84
2022/07/21 11:15:55;;;;;;;;;;;22.20;62.80;;;21.55;58.49;96279.53;4237295;33;20133;-84
2022/07/21 11:18:24;;;;;;;;;;;22.20;62.90;;;21.56;58.46;96286.69;4262056;33;19973;-83
2022/07/21 11:21:17;;;;;;;;;;;22.20;62.80;;;21.55;58.39;96278.69;4260972;33;19902;-84
2022/07/21 11:23:49;;;;;;;;;;;22.20;62.80;;;21.56;58.38;96275.56;4241984;33;20106;-84
2022/07/21 11:26:19;;;;;;;;;;;22.20;62.80;;;21.55;58.41;96273.13;4262536;33;19958;-84
2022/07/21 11:28:54;;;;;;;;;;;22.20;63.70;;;21.55;58.42;96262.81;4264469;33;20042;-84
2022/07/21 11:31:24;;;;;;;;;;;22.20;62.80;;;21.56;58.51;96269.19;4261087;33;20133;-84
2022/07/21 11:33:52;;;;;;;;;;;22.20;62.90;;;21.55;58.57;96264.78;4263522;33;20149;-84